sensor_id;sensor_type;location;lat;lon;timestamp;P1;durP1;ratioP1;P2;durP2;ratioP2
31978;SDS011;18502;43.574;1.276;2023-05-19T00:01:08;5.65;;;2.78;;
31978;SDS011;18502;43.574;1.276;2023-05-19T00:03:34;8.35;;;2.88;;
31978;SDS011;18502;43.574;1.276;2023-05-19T00:06:04;6.75;;;2.80;;
31978;SDS011;18502;43.574;1.276;2023-05-19T00:08:34;10.73;;;2.92;;
31978;SDS011;18502;43.574;1.276;2023-05-19T00:11:02;6.03;;;3.15;;
31978;SDS011;18502;43.574;1.276;2023-05-19T00:13:28;5.47;;;2.90;;
31978;SDS011;18502;43.574;1.276;2023-05-19T00:15:54;6.72;;;3.03;;
31978;SDS011;18502;43.574;1.276;2023-05-19T00:18:20;9.45;;;3.17;;
31978;SDS011;18502;43.574;1.276;2023-05-19T00:20:47;8.13;;;3.40;;
31978;SDS011;18502;43.574;1.276;2023-05-19T00:23:13;7.47;;;3.13;;
31978;SDS011;18502;43.574;1.276;2023-05-19T00:25:39;8.90;;;3.33;;
31978;SDS011;18502;43.574;1.276;2023-05-19T00:28:05;5.43;;;3.38;;
31978;SDS011;18502;43.574;1.276;2023-05-19T00:30:30;6.35;;;2.85;;
31978;SDS011;18502;43.574;1.276;2023-05-19T00:32:56;8.85;;;2.97;;
31978;SDS011;18502;43.574;1.276;2023-05-19T00:35:22;4.25;;;2.63;;
31978;SDS011;18502;43.574;1.276;2023-05-19T00:37:48;5.68;;;3.05;;
31978;SDS011;18502;43.574;1.276;2023-05-19T00:40:14;8.95;;;2.75;;
31978;SDS011;18502;43.574;1.276;2023-05-19T00:42:40;11.13;;;3.20;;
31978;SDS011;18502;43.574;1.276;2023-05-19T00:45:06;6.15;;;3.50;;
31978;SDS011;18502;43.574;1.276;2023-05-19T00:47:32;6.80;;;3.03;;
31978;SDS011;18502;43.574;1.276;2023-05-19T00:49:58;9.95;;;3.00;;
31978;SDS011;18502;43.574;1.276;2023-05-19T00:52:24;7.85;;;3.58;;
31978;SDS011;18502;43.574;1.276;2023-05-19T00:54:52;9.95;;;3.00;;
31978;SDS011;18502;43.574;1.276;2023-05-19T00:57:19;7.57;;;3.15;;
31978;SDS011;18502;43.574;1.276;2023-05-19T00:59:46;4.93;;;3.00;;
31978;SDS011;18502;43.574;1.276;2023-05-19T01:02:12;5.60;;;2.92;;
31978;SDS011;18502;43.574;1.276;2023-05-19T01:04:39;8.70;;;3.40;;
31978;SDS011;18502;43.574;1.276;2023-05-19T01:07:06;6.72;;;3.40;;
31978;SDS011;18502;43.574;1.276;2023-05-19T01:09:32;7.80;;;3.05;;
31978;SDS011;18502;43.574;1.276;2023-05-19T01:11:58;4.95;;;2.70;;
31978;SDS011;18502;43.574;1.276;2023-05-19T01:14:24;4.05;;;3.03;;
31978;SDS011;18502;43.574;1.276;2023-05-19T01:16:59;8.40;;;3.50;;
31978;SDS011;18502;43.574;1.276;2023-05-19T01:19:32;6.50;;;3.05;;
31978;SDS011;18502;43.574;1.276;2023-05-19T01:22:13;8.93;;;3.10;;
31978;SDS011;18502;43.574;1.276;2023-05-19T01:30:44;7.00;;;3.17;;
31978;SDS011;18502;43.574;1.276;2023-05-19T01:33:16;7.90;;;3.60;;
31978;SDS011;18502;43.574;1.276;2023-05-19T01:35:43;7.60;;;3.30;;
31978;SDS011;18502;43.574;1.276;2023-05-19T01:38:11;7.38;;;3.00;;
31978;SDS011;18502;43.574;1.276;2023-05-19T01:40:39;7.32;;;3.33;;
31978;SDS011;18502;43.574;1.276;2023-05-19T01:43:07;11.25;;;3.60;;
31978;SDS011;18502;43.574;1.276;2023-05-19T01:45:35;9.27;;;3.05;;
31978;SDS011;18502;43.574;1.276;2023-05-19T01:48:02;8.32;;;3.65;;
31978;SDS011;18502;43.574;1.276;2023-05-19T01:50:28;9.68;;;4.53;;
31978;SDS011;18502;43.574;1.276;2023-05-19T01:52:55;7.63;;;3.63;;
31978;SDS011;18502;43.574;1.276;2023-05-19T01:55:21;7.65;;;3.78;;
31978;SDS011;18502;43.574;1.276;2023-05-19T02:02:54;9.20;;;3.92;;
31978;SDS011;18502;43.574;1.276;2023-05-19T02:08:12;8.15;;;4.30;;
31978;SDS011;18502;43.574;1.276;2023-05-19T02:10:42;8.10;;;4.13;;
31978;SDS011;18502;43.574;1.276;2023-05-19T02:13:14;8.38;;;3.45;;
31978;SDS011;18502;43.574;1.276;2023-05-19T02:15:44;8.43;;;3.80;;
31978;SDS011;18502;43.574;1.276;2023-05-19T02:18:11;8.45;;;4.43;;
31978;SDS011;18502;43.574;1.276;2023-05-19T02:20:38;10.18;;;3.95;;
31978;SDS011;18502;43.574;1.276;2023-05-19T02:23:04;12.18;;;4.60;;
31978;SDS011;18502;43.574;1.276;2023-05-19T02:25:29;10.07;;;4.50;;
31978;SDS011;18502;43.574;1.276;2023-05-19T02:27:56;8.50;;;3.58;;
31978;SDS011;18502;43.574;1.276;2023-05-19T02:30:22;10.77;;;4.28;;
31978;SDS011;18502;43.574;1.276;2023-05-19T02:32:48;11.45;;;4.13;;
31978;SDS011;18502;43.574;1.276;2023-05-19T02:35:14;9.43;;;4.03;;
31978;SDS011;18502;43.574;1.276;2023-05-19T02:37:40;12.00;;;4.28;;
31978;SDS011;18502;43.574;1.276;2023-05-19T02:40:06;12.13;;;3.90;;
31978;SDS011;18502;43.574;1.276;2023-05-19T02:42:32;10.80;;;4.70;;
31978;SDS011;18502;43.574;1.276;2023-05-19T02:44:58;13.75;;;4.65;;
31978;SDS011;18502;43.574;1.276;2023-05-19T02:47:24;11.15;;;4.07;;
31978;SDS011;18502;43.574;1.276;2023-05-19T02:49:50;11.73;;;4.25;;
31978;SDS011;18502;43.574;1.276;2023-05-19T02:52:15;9.20;;;4.88;;
31978;SDS011;18502;43.574;1.276;2023-05-19T02:54:41;11.20;;;4.63;;
31978;SDS011;18502;43.574;1.276;2023-05-19T02:57:06;10.23;;;4.95;;
31978;SDS011;18502;43.574;1.276;2023-05-19T02:59:32;9.45;;;4.93;;
31978;SDS011;18502;43.574;1.276;2023-05-19T03:01:59;10.25;;;4.35;;
31978;SDS011;18502;43.574;1.276;2023-05-19T03:04:25;16.63;;;4.90;;
31978;SDS011;18502;43.574;1.276;2023-05-19T03:06:52;10.13;;;4.47;;
31978;SDS011;18502;43.574;1.276;2023-05-19T03:09:18;8.27;;;4.50;;
31978;SDS011;18502;43.574;1.276;2023-05-19T03:11:44;11.52;;;5.00;;
31978;SDS011;18502;43.574;1.276;2023-05-19T03:14:10;17.15;;;5.82;;
31978;SDS011;18502;43.574;1.276;2023-05-19T03:16:37;9.23;;;4.05;;
31978;SDS011;18502;43.574;1.276;2023-05-19T03:19:05;9.32;;;4.47;;
31978;SDS011;18502;43.574;1.276;2023-05-19T03:21:31;10.90;;;4.50;;
31978;SDS011;18502;43.574;1.276;2023-05-19T03:23:57;10.95;;;4.40;;
31978;SDS011;18502;43.574;1.276;2023-05-19T03:26:23;10.85;;;4.88;;
31978;SDS011;18502;43.574;1.276;2023-05-19T03:28:49;7.10;;;4.40;;
31978;SDS011;18502;43.574;1.276;2023-05-19T03:31:14;12.88;;;4.78;;
31978;SDS011;18502;43.574;1.276;2023-05-19T03:33:40;11.35;;;4.55;;
31978;SDS011;18502;43.574;1.276;2023-05-19T03:36:06;10.43;;;4.57;;
31978;SDS011;18502;43.574;1.276;2023-05-19T03:38:31;7.90;;;4.55;;
31978;SDS011;18502;43.574;1.276;2023-05-19T03:40:57;8.43;;;4.50;;
31978;SDS011;18502;43.574;1.276;2023-05-19T03:43:23;10.43;;;4.70;;
31978;SDS011;18502;43.574;1.276;2023-05-19T03:45:48;10.52;;;4.18;;
31978;SDS011;18502;43.574;1.276;2023-05-19T03:48:14;11.90;;;5.18;;
31978;SDS011;18502;43.574;1.276;2023-05-19T03:50:40;12.10;;;4.78;;
31978;SDS011;18502;43.574;1.276;2023-05-19T03:53:06;14.15;;;4.70;;
31978;SDS011;18502;43.574;1.276;2023-05-19T03:55:32;12.60;;;5.05;;
31978;SDS011;18502;43.574;1.276;2023-05-19T03:57:58;11.20;;;5.15;;
31978;SDS011;18502;43.574;1.276;2023-05-19T04:00:23;10.65;;;4.82;;
31978;SDS011;18502;43.574;1.276;2023-05-19T04:02:49;10.90;;;5.07;;
31978;SDS011;18502;43.574;1.276;2023-05-19T04:05:15;11.85;;;4.65;;
31978;SDS011;18502;43.574;1.276;2023-05-19T04:07:40;15.45;;;5.82;;
31978;SDS011;18502;43.574;1.276;2023-05-19T04:10:07;13.93;;;5.40;;
31978;SDS011;18502;43.574;1.276;2023-05-19T04:12:32;10.70;;;4.85;;
31978;SDS011;18502;43.574;1.276;2023-05-19T04:14:58;11.05;;;4.45;;
31978;SDS011;18502;43.574;1.276;2023-05-19T04:17:24;11.55;;;5.88;;
31978;SDS011;18502;43.574;1.276;2023-05-19T04:19:54;8.32;;;4.75;;
31978;SDS011;18502;43.574;1.276;2023-05-19T04:22:20;7.82;;;4.63;;
31978;SDS011;18502;43.574;1.276;2023-05-19T04:24:45;9.68;;;5.00;;
31978;SDS011;18502;43.574;1.276;2023-05-19T04:27:11;7.13;;;4.72;;
31978;SDS011;18502;43.574;1.276;2023-05-19T04:29:37;10.73;;;5.05;;
31978;SDS011;18502;43.574;1.276;2023-05-19T04:32:04;11.73;;;4.78;;
31978;SDS011;18502;43.574;1.276;2023-05-19T04:34:30;12.23;;;5.15;;
31978;SDS011;18502;43.574;1.276;2023-05-19T04:36:57;12.27;;;4.43;;
31978;SDS011;18502;43.574;1.276;2023-05-19T04:39:23;7.68;;;4.00;;
31978;SDS011;18502;43.574;1.276;2023-05-19T04:41:49;11.93;;;4.85;;
31978;SDS011;18502;43.574;1.276;2023-05-19T04:44:15;17.25;;;5.32;;
31978;SDS011;18502;43.574;1.276;2023-05-19T04:46:42;10.88;;;5.20;;
31978;SDS011;18502;43.574;1.276;2023-05-19T04:49:09;10.07;;;5.28;;
31978;SDS011;18502;43.574;1.276;2023-05-19T04:51:36;15.48;;;5.22;;
31978;SDS011;18502;43.574;1.276;2023-05-19T04:54:05;11.75;;;4.90;;
31978;SDS011;18502;43.574;1.276;2023-05-19T04:56:34;14.48;;;5.03;;
31978;SDS011;18502;43.574;1.276;2023-05-19T04:59:00;13.45;;;5.70;;
31978;SDS011;18502;43.574;1.276;2023-05-19T05:01:25;13.35;;;5.13;;
31978;SDS011;18502;43.574;1.276;2023-05-19T05:03:52;16.23;;;6.13;;
31978;SDS011;18502;43.574;1.276;2023-05-19T05:06:19;10.70;;;4.93;;
31978;SDS011;18502;43.574;1.276;2023-05-19T05:08:46;12.85;;;5.50;;
31978;SDS011;18502;43.574;1.276;2023-05-19T05:11:12;14.05;;;5.28;;
31978;SDS011;18502;43.574;1.276;2023-05-19T05:13:38;9.73;;;5.38;;
31978;SDS011;18502;43.574;1.276;2023-05-19T05:16:04;13.63;;;5.50;;
31978;SDS011;18502;43.574;1.276;2023-05-19T05:18:32;13.48;;;5.47;;
31978;SDS011;18502;43.574;1.276;2023-05-19T05:20:59;11.60;;;5.22;;
31978;SDS011;18502;43.574;1.276;2023-05-19T05:23:25;10.45;;;5.05;;
31978;SDS011;18502;43.574;1.276;2023-05-19T05:25:51;11.88;;;5.35;;
31978;SDS011;18502;43.574;1.276;2023-05-19T05:28:17;16.95;;;5.43;;
31978;SDS011;18502;43.574;1.276;2023-05-19T05:30:43;8.57;;;4.65;;
31978;SDS011;18502;43.574;1.276;2023-05-19T05:33:10;10.70;;;5.03;;
31978;SDS011;18502;43.574;1.276;2023-05-19T05:35:35;13.05;;;4.93;;
31978;SDS011;18502;43.574;1.276;2023-05-19T05:38:01;13.50;;;4.95;;
31978;SDS011;18502;43.574;1.276;2023-05-19T05:40:27;12.35;;;5.18;;
31978;SDS011;18502;43.574;1.276;2023-05-19T05:42:53;12.40;;;5.20;;
31978;SDS011;18502;43.574;1.276;2023-05-19T05:45:21;14.18;;;5.60;;
31978;SDS011;18502;43.574;1.276;2023-05-19T05:47:47;9.63;;;5.07;;
31978;SDS011;18502;43.574;1.276;2023-05-19T05:50:13;12.57;;;5.25;;
31978;SDS011;18502;43.574;1.276;2023-05-19T05:52:39;13.35;;;5.65;;
31978;SDS011;18502;43.574;1.276;2023-05-19T05:55:07;10.68;;;5.07;;
31978;SDS011;18502;43.574;1.276;2023-05-19T05:57:33;11.10;;;4.97;;
31978;SDS011;18502;43.574;1.276;2023-05-19T06:00:02;14.43;;;4.80;;
31978;SDS011;18502;43.574;1.276;2023-05-19T06:02:34;11.45;;;5.38;;
31978;SDS011;18502;43.574;1.276;2023-05-19T06:05:00;10.95;;;5.13;;
31978;SDS011;18502;43.574;1.276;2023-05-19T06:07:26;11.48;;;5.03;;
31978;SDS011;18502;43.574;1.276;2023-05-19T06:09:52;11.63;;;5.38;;
31978;SDS011;18502;43.574;1.276;2023-05-19T06:12:17;15.38;;;5.53;;
31978;SDS011;18502;43.574;1.276;2023-05-19T06:14:43;8.60;;;4.57;;
31978;SDS011;18502;43.574;1.276;2023-05-19T06:17:09;9.07;;;4.20;;
31978;SDS011;18502;43.574;1.276;2023-05-19T06:19:34;9.63;;;5.00;;
31978;SDS011;18502;43.574;1.276;2023-05-19T06:22:00;14.82;;;5.28;;
31978;SDS011;18502;43.574;1.276;2023-05-19T06:24:26;10.23;;;4.65;;
31978;SDS011;18502;43.574;1.276;2023-05-19T06:26:51;12.43;;;5.22;;
31978;SDS011;18502;43.574;1.276;2023-05-19T06:29:17;10.40;;;4.30;;
31978;SDS011;18502;43.574;1.276;2023-05-19T06:31:42;10.60;;;5.10;;
31978;SDS011;18502;43.574;1.276;2023-05-19T06:34:08;12.63;;;4.85;;
31978;SDS011;18502;43.574;1.276;2023-05-19T06:36:40;13.23;;;5.43;;
31978;SDS011;18502;43.574;1.276;2023-05-19T06:39:05;7.22;;;4.22;;
31978;SDS011;18502;43.574;1.276;2023-05-19T06:41:31;7.53;;;4.45;;
31978;SDS011;18502;43.574;1.276;2023-05-19T06:43:57;10.13;;;4.78;;
31978;SDS011;18502;43.574;1.276;2023-05-19T06:46:22;9.02;;;4.53;;
31978;SDS011;18502;43.574;1.276;2023-05-19T06:48:48;14.90;;;5.65;;
31978;SDS011;18502;43.574;1.276;2023-05-19T06:51:14;9.25;;;4.70;;
31978;SDS011;18502;43.574;1.276;2023-05-19T06:53:45;11.18;;;4.82;;
31978;SDS011;18502;43.574;1.276;2023-05-19T06:56:11;9.70;;;4.13;;
31978;SDS011;18502;43.574;1.276;2023-05-19T06:58:38;8.50;;;4.55;;
31978;SDS011;18502;43.574;1.276;2023-05-19T07:01:04;10.93;;;5.65;;
31978;SDS011;18502;43.574;1.276;2023-05-19T07:03:30;13.43;;;4.80;;
31978;SDS011;18502;43.574;1.276;2023-05-19T07:05:55;9.27;;;5.03;;
31978;SDS011;18502;43.574;1.276;2023-05-19T07:08:21;8.30;;;4.47;;
31978;SDS011;18502;43.574;1.276;2023-05-19T07:10:47;9.63;;;4.68;;
31978;SDS011;18502;43.574;1.276;2023-05-19T07:13:12;8.82;;;4.18;;
31978;SDS011;18502;43.574;1.276;2023-05-19T07:15:38;6.88;;;4.25;;
31978;SDS011;18502;43.574;1.276;2023-05-19T07:18:04;11.18;;;4.50;;
31978;SDS011;18502;43.574;1.276;2023-05-19T07:20:29;7.70;;;4.45;;
31978;SDS011;18502;43.574;1.276;2023-05-19T07:22:55;12.52;;;4.53;;
31978;SDS011;18502;43.574;1.276;2023-05-19T07:25:21;8.90;;;4.07;;
31978;SDS011;18502;43.574;1.276;2023-05-19T07:27:46;10.90;;;4.55;;
31978;SDS011;18502;43.574;1.276;2023-05-19T07:30:12;10.77;;;4.38;;
31978;SDS011;18502;43.574;1.276;2023-05-19T07:32:38;10.05;;;4.50;;
31978;SDS011;18502;43.574;1.276;2023-05-19T07:35:04;11.35;;;4.40;;
31978;SDS011;18502;43.574;1.276;2023-05-19T07:37:30;9.68;;;4.13;;
31978;SDS011;18502;43.574;1.276;2023-05-19T07:39:56;9.77;;;4.93;;
31978;SDS011;18502;43.574;1.276;2023-05-19T07:42:22;13.02;;;4.03;;
31978;SDS011;18502;43.574;1.276;2023-05-19T07:44:47;7.50;;;4.20;;
31978;SDS011;18502;43.574;1.276;2023-05-19T07:47:13;6.30;;;4.40;;
31978;SDS011;18502;43.574;1.276;2023-05-19T07:49:38;10.05;;;4.18;;
31978;SDS011;18502;43.574;1.276;2023-05-19T07:52:04;6.85;;;4.20;;
31978;SDS011;18502;43.574;1.276;2023-05-19T07:54:30;12.80;;;5.20;;
31978;SDS011;18502;43.574;1.276;2023-05-19T07:56:56;9.98;;;3.85;;
31978;SDS011;18502;43.574;1.276;2023-05-19T07:59:21;5.38;;;3.03;;
31978;SDS011;18502;43.574;1.276;2023-05-19T08:01:48;8.88;;;4.40;;
31978;SDS011;18502;43.574;1.276;2023-05-19T08:04:13;8.88;;;4.70;;
31978;SDS011;18502;43.574;1.276;2023-05-19T08:06:39;8.77;;;4.38;;
31978;SDS011;18502;43.574;1.276;2023-05-19T08:09:06;5.65;;;3.63;;
31978;SDS011;18502;43.574;1.276;2023-05-19T08:11:32;6.93;;;3.58;;
31978;SDS011;18502;43.574;1.276;2023-05-19T08:13:58;8.60;;;3.78;;
31978;SDS011;18502;43.574;1.276;2023-05-19T08:16:24;8.77;;;4.03;;
31978;SDS011;18502;43.574;1.276;2023-05-19T08:18:49;6.25;;;3.85;;
31978;SDS011;18502;43.574;1.276;2023-05-19T08:21:15;11.38;;;3.90;;
31978;SDS011;18502;43.574;1.276;2023-05-19T08:23:41;7.45;;;4.22;;
31978;SDS011;18502;43.574;1.276;2023-05-19T08:26:07;9.15;;;3.60;;
31978;SDS011;18502;43.574;1.276;2023-05-19T08:28:32;5.20;;;3.55;;
31978;SDS011;18502;43.574;1.276;2023-05-19T08:30:58;7.28;;;4.00;;
31978;SDS011;18502;43.574;1.276;2023-05-19T08:33:23;10.20;;;4.10;;
31978;SDS011;18502;43.574;1.276;2023-05-19T08:35:49;7.95;;;4.32;;
31978;SDS011;18502;43.574;1.276;2023-05-19T08:38:15;12.57;;;4.10;;
31978;SDS011;18502;43.574;1.276;2023-05-19T08:40:41;5.20;;;3.55;;
31978;SDS011;18502;43.574;1.276;2023-05-19T08:43:07;9.73;;;4.03;;
31978;SDS011;18502;43.574;1.276;2023-05-19T08:45:33;5.65;;;3.80;;
31978;SDS011;18502;43.574;1.276;2023-05-19T08:47:59;8.05;;;3.85;;
31978;SDS011;18502;43.574;1.276;2023-05-19T08:50:28;8.60;;;3.78;;
31978;SDS011;18502;43.574;1.276;2023-05-19T08:53:03;12.00;;;4.15;;
31978;SDS011;18502;43.574;1.276;2023-05-19T08:58:39;8.32;;;3.50;;
31978;SDS011;18502;43.574;1.276;2023-05-19T09:01:07;6.97;;;3.47;;
31978;SDS011;18502;43.574;1.276;2023-05-19T09:03:35;7.07;;;3.45;;
31978;SDS011;18502;43.574;1.276;2023-05-19T09:06:05;11.73;;;4.18;;
31978;SDS011;18502;43.574;1.276;2023-05-19T09:08:41;8.05;;;3.35;;
31978;SDS011;18502;43.574;1.276;2023-05-19T09:11:10;11.50;;;3.63;;
31978;SDS011;18502;43.574;1.276;2023-05-19T09:13:36;9.32;;;4.07;;
31978;SDS011;18502;43.574;1.276;2023-05-19T09:16:02;10.88;;;3.38;;
31978;SDS011;18502;43.574;1.276;2023-05-19T09:18:28;12.57;;;4.45;;
31978;SDS011;18502;43.574;1.276;2023-05-19T09:20:58;8.00;;;3.55;;
31978;SDS011;18502;43.574;1.276;2023-05-19T09:23:27;8.85;;;3.50;;
31978;SDS011;18502;43.574;1.276;2023-05-19T09:25:54;8.10;;;3.63;;
31978;SDS011;18502;43.574;1.276;2023-05-19T09:28:24;5.93;;;3.35;;
31978;SDS011;18502;43.574;1.276;2023-05-19T09:31:12;8.63;;;3.85;;
31978;SDS011;18502;43.574;1.276;2023-05-19T09:33:38;10.90;;;3.72;;
31978;SDS011;18502;43.574;1.276;2023-05-19T09:36:09;7.57;;;3.35;;
31978;SDS011;18502;43.574;1.276;2023-05-19T09:38:35;8.52;;;3.30;;
31978;SDS011;18502;43.574;1.276;2023-05-19T09:41:04;8.93;;;3.42;;
31978;SDS011;18502;43.574;1.276;2023-05-19T09:43:31;8.73;;;3.47;;
31978;SDS011;18502;43.574;1.276;2023-05-19T09:46:08;11.88;;;3.38;;
31978;SDS011;18502;43.574;1.276;2023-05-19T09:48:37;9.03;;;3.23;;
31978;SDS011;18502;43.574;1.276;2023-05-19T09:51:03;6.57;;;3.47;;
31978;SDS011;18502;43.574;1.276;2023-05-19T09:53:32;7.13;;;3.97;;
31978;SDS011;18502;43.574;1.276;2023-05-19T09:55:59;9.98;;;3.55;;
31978;SDS011;18502;43.574;1.276;2023-05-19T09:58:25;7.07;;;3.33;;
31978;SDS011;18502;43.574;1.276;2023-05-19T10:00:55;8.02;;;3.22;;
31978;SDS011;18502;43.574;1.276;2023-05-19T10:03:22;9.75;;;3.97;;
31978;SDS011;18502;43.574;1.276;2023-05-19T10:05:49;9.75;;;3.90;;
31978;SDS011;18502;43.574;1.276;2023-05-19T10:08:16;8.05;;;3.05;;
31978;SDS011;18502;43.574;1.276;2023-05-19T10:10:44;6.53;;;3.45;;
31978;SDS011;18502;43.574;1.276;2023-05-19T10:13:11;7.90;;;3.45;;
31978;SDS011;18502;43.574;1.276;2023-05-19T10:15:37;9.48;;;3.78;;
31978;SDS011;18502;43.574;1.276;2023-05-19T10:18:10;11.02;;;3.70;;
31978;SDS011;18502;43.574;1.276;2023-05-19T10:20:36;9.45;;;3.67;;
31978;SDS011;18502;43.574;1.276;2023-05-19T10:23:04;10.35;;;3.60;;
31978;SDS011;18502;43.574;1.276;2023-05-19T10:25:30;9.80;;;3.60;;
31978;SDS011;18502;43.574;1.276;2023-05-19T10:28:07;8.95;;;3.92;;
31978;SDS011;18502;43.574;1.276;2023-05-19T10:30:38;4.88;;;3.35;;
31978;SDS011;18502;43.574;1.276;2023-05-19T10:33:10;11.13;;;3.80;;
31978;SDS011;18502;43.574;1.276;2023-05-19T10:38:33;11.07;;;3.97;;
31978;SDS011;18502;43.574;1.276;2023-05-19T10:41:15;12.25;;;4.60;;
31978;SDS011;18502;43.574;1.276;2023-05-19T10:46:28;7.63;;;3.33;;
31978;SDS011;18502;43.574;1.276;2023-05-19T10:48:54;6.10;;;3.28;;
31978;SDS011;18502;43.574;1.276;2023-05-19T10:51:27;9.80;;;3.30;;
31978;SDS011;18502;43.574;1.276;2023-05-19T10:53:56;7.18;;;2.95;;
31978;SDS011;18502;43.574;1.276;2023-05-19T10:56:29;8.15;;;3.03;;
31978;SDS011;18502;43.574;1.276;2023-05-19T10:58:58;6.53;;;3.22;;
31978;SDS011;18502;43.574;1.276;2023-05-19T11:01:42;7.47;;;3.22;;
31978;SDS011;18502;43.574;1.276;2023-05-19T11:04:08;8.80;;;3.55;;
31978;SDS011;18502;43.574;1.276;2023-05-19T11:06:39;15.77;;;7.53;;
31978;SDS011;18502;43.574;1.276;2023-05-19T11:09:10;8.02;;;3.97;;
31978;SDS011;18502;43.574;1.276;2023-05-19T11:14:18;7.80;;;3.45;;
31978;SDS011;18502;43.574;1.276;2023-05-19T11:16:47;10.80;;;3.63;;
31978;SDS011;18502;43.574;1.276;2023-05-19T11:19:17;5.50;;;3.17;;
31978;SDS011;18502;43.574;1.276;2023-05-19T11:21:47;6.93;;;3.10;;
31978;SDS011;18502;43.574;1.276;2023-05-19T11:24:52;8.20;;;3.55;;
31978;SDS011;18502;43.574;1.276;2023-05-19T11:29:49;8.45;;;3.75;;
31978;SDS011;18502;43.574;1.276;2023-05-19T11:32:24;10.52;;;4.00;;
31978;SDS011;18502;43.574;1.276;2023-05-19T11:34:51;7.88;;;3.85;;
31978;SDS011;18502;43.574;1.276;2023-05-19T11:37:18;7.43;;;4.10;;
31978;SDS011;18502;43.574;1.276;2023-05-19T11:39:45;8.35;;;3.33;;
31978;SDS011;18502;43.574;1.276;2023-05-19T11:42:11;11.60;;;3.95;;
31978;SDS011;18502;43.574;1.276;2023-05-19T11:44:38;7.57;;;3.65;;
31978;SDS011;18502;43.574;1.276;2023-05-19T11:47:05;7.95;;;3.55;;
31978;SDS011;18502;43.574;1.276;2023-05-19T11:49:32;7.10;;;3.85;;
31978;SDS011;18502;43.574;1.276;2023-05-19T11:52:00;8.27;;;3.83;;
31978;SDS011;18502;43.574;1.276;2023-05-19T11:54:36;10.25;;;3.95;;
31978;SDS011;18502;43.574;1.276;2023-05-19T11:57:03;9.80;;;4.20;;
31978;SDS011;18502;43.574;1.276;2023-05-19T11:59:33;9.70;;;4.28;;
31978;SDS011;18502;43.574;1.276;2023-05-19T12:02:21;10.43;;;3.95;;
31978;SDS011;18502;43.574;1.276;2023-05-19T12:04:48;7.28;;;3.30;;
31978;SDS011;18502;43.574;1.276;2023-05-19T12:07:15;6.90;;;4.05;;
31978;SDS011;18502;43.574;1.276;2023-05-19T12:09:42;8.40;;;4.07;;
31978;SDS011;18502;43.574;1.276;2023-05-19T12:12:14;5.70;;;3.60;;
31978;SDS011;18502;43.574;1.276;2023-05-19T12:14:41;10.15;;;4.05;;
31978;SDS011;18502;43.574;1.276;2023-05-19T12:17:14;14.02;;;4.18;;
31978;SDS011;18502;43.574;1.276;2023-05-19T12:19:44;8.45;;;3.35;;
31978;SDS011;18502;43.574;1.276;2023-05-19T12:22:11;15.30;;;4.07;;
31978;SDS011;18502;43.574;1.276;2023-05-19T12:24:38;9.80;;;3.80;;
31978;SDS011;18502;43.574;1.276;2023-05-19T12:27:08;10.60;;;4.22;;
31978;SDS011;18502;43.574;1.276;2023-05-19T12:29:37;8.32;;;3.88;;
31978;SDS011;18502;43.574;1.276;2023-05-19T12:32:05;7.03;;;3.83;;
31978;SDS011;18502;43.574;1.276;2023-05-19T12:34:34;10.57;;;4.43;;
31978;SDS011;18502;43.574;1.276;2023-05-19T12:37:03;9.23;;;4.55;;
31978;SDS011;18502;43.574;1.276;2023-05-19T12:39:29;7.60;;;4.38;;
31978;SDS011;18502;43.574;1.276;2023-05-19T12:42:02;9.98;;;3.90;;
31978;SDS011;18502;43.574;1.276;2023-05-19T12:44:28;9.82;;;4.05;;
31978;SDS011;18502;43.574;1.276;2023-05-19T12:46:56;7.15;;;4.25;;
31978;SDS011;18502;43.574;1.276;2023-05-19T12:49:23;6.85;;;4.10;;
31978;SDS011;18502;43.574;1.276;2023-05-19T12:51:52;8.60;;;3.80;;
31978;SDS011;18502;43.574;1.276;2023-05-19T12:54:21;9.97;;;3.97;;
31978;SDS011;18502;43.574;1.276;2023-05-19T12:56:50;8.45;;;3.85;;
31978;SDS011;18502;43.574;1.276;2023-05-19T12:59:20;9.68;;;4.03;;
31978;SDS011;18502;43.574;1.276;2023-05-19T13:01:53;8.23;;;3.72;;
31978;SDS011;18502;43.574;1.276;2023-05-19T13:04:23;7.15;;;3.58;;
31978;SDS011;18502;43.574;1.276;2023-05-19T13:06:49;8.20;;;3.72;;
31978;SDS011;18502;43.574;1.276;2023-05-19T13:09:14;9.02;;;3.70;;
31978;SDS011;18502;43.574;1.276;2023-05-19T13:11:41;6.75;;;3.05;;
31978;SDS011;18502;43.574;1.276;2023-05-19T13:14:11;11.05;;;3.40;;
31978;SDS011;18502;43.574;1.276;2023-05-19T13:16:36;7.20;;;3.40;;
31978;SDS011;18502;43.574;1.276;2023-05-19T13:19:02;7.75;;;3.42;;
31978;SDS011;18502;43.574;1.276;2023-05-19T13:21:28;6.82;;;3.25;;
31978;SDS011;18502;43.574;1.276;2023-05-19T13:23:53;11.60;;;3.30;;
31978;SDS011;18502;43.574;1.276;2023-05-19T13:26:19;6.32;;;2.95;;
31978;SDS011;18502;43.574;1.276;2023-05-19T13:28:45;8.52;;;3.97;;
31978;SDS011;18502;43.574;1.276;2023-05-19T13:31:11;7.25;;;3.08;;
31978;SDS011;18502;43.574;1.276;2023-05-19T13:33:37;8.20;;;3.58;;
31978;SDS011;18502;43.574;1.276;2023-05-19T13:36:03;12.07;;;4.13;;
31978;SDS011;18502;43.574;1.276;2023-05-19T13:38:29;11.48;;;3.78;;
31978;SDS011;18502;43.574;1.276;2023-05-19T13:40:54;7.75;;;3.45;;
31978;SDS011;18502;43.574;1.276;2023-05-19T13:43:20;9.45;;;3.42;;
31978;SDS011;18502;43.574;1.276;2023-05-19T13:45:46;9.38;;;3.47;;
31978;SDS011;18502;43.574;1.276;2023-05-19T13:48:11;5.50;;;2.92;;
31978;SDS011;18502;43.574;1.276;2023-05-19T13:50:37;6.53;;;3.13;;
31978;SDS011;18502;43.574;1.276;2023-05-19T13:53:03;5.35;;;2.92;;
31978;SDS011;18502;43.574;1.276;2023-05-19T13:55:29;7.82;;;2.75;;
31978;SDS011;18502;43.574;1.276;2023-05-19T13:57:54;6.72;;;2.85;;
31978;SDS011;18502;43.574;1.276;2023-05-19T14:00:20;9.90;;;3.45;;
31978;SDS011;18502;43.574;1.276;2023-05-19T14:02:45;7.35;;;3.03;;
31978;SDS011;18502;43.574;1.276;2023-05-19T14:05:11;9.32;;;3.53;;
31978;SDS011;18502;43.574;1.276;2023-05-19T14:07:37;5.00;;;3.13;;
31978;SDS011;18502;43.574;1.276;2023-05-19T14:10:03;10.40;;;3.20;;
31978;SDS011;18502;43.574;1.276;2023-05-19T14:12:32;6.75;;;2.88;;
31978;SDS011;18502;43.574;1.276;2023-05-19T14:14:59;11.27;;;3.60;;
31978;SDS011;18502;43.574;1.276;2023-05-19T14:17:25;9.80;;;3.65;;
31978;SDS011;18502;43.574;1.276;2023-05-19T14:19:52;10.68;;;3.85;;
31978;SDS011;18502;43.574;1.276;2023-05-19T14:22:18;8.98;;;3.70;;
31978;SDS011;18502;43.574;1.276;2023-05-19T14:24:43;7.53;;;2.97;;
31978;SDS011;18502;43.574;1.276;2023-05-19T14:27:09;8.82;;;3.58;;
31978;SDS011;18502;43.574;1.276;2023-05-19T14:29:35;10.65;;;3.03;;
31978;SDS011;18502;43.574;1.276;2023-05-19T14:32:00;8.45;;;2.92;;
31978;SDS011;18502;43.574;1.276;2023-05-19T14:34:27;9.88;;;3.10;;
31978;SDS011;18502;43.574;1.276;2023-05-19T14:36:53;6.35;;;2.80;;
31978;SDS011;18502;43.574;1.276;2023-05-19T14:39:18;7.75;;;2.80;;
31978;SDS011;18502;43.574;1.276;2023-05-19T14:41:44;5.63;;;2.65;;
31978;SDS011;18502;43.574;1.276;2023-05-19T14:44:11;8.40;;;3.00;;
31978;SDS011;18502;43.574;1.276;2023-05-19T14:46:36;6.25;;;2.72;;
31978;SDS011;18502;43.574;1.276;2023-05-19T14:49:02;7.50;;;2.92;;
31978;SDS011;18502;43.574;1.276;2023-05-19T14:51:28;8.75;;;3.47;;
31978;SDS011;18502;43.574;1.276;2023-05-19T14:53:53;8.93;;;2.95;;
31978;SDS011;18502;43.574;1.276;2023-05-19T14:56:19;6.82;;;2.92;;
31978;SDS011;18502;43.574;1.276;2023-05-19T14:58:46;10.52;;;3.55;;
31978;SDS011;18502;43.574;1.276;2023-05-19T15:01:12;8.63;;;3.03;;
31978;SDS011;18502;43.574;1.276;2023-05-19T15:03:37;6.13;;;2.90;;
31978;SDS011;18502;43.574;1.276;2023-05-19T15:06:06;8.10;;;2.83;;
31978;SDS011;18502;43.574;1.276;2023-05-19T15:08:33;6.30;;;3.25;;
31978;SDS011;18502;43.574;1.276;2023-05-19T15:11:01;9.05;;;2.83;;